Time;durP1;ratioP1;P1;durP2;ratioP2;P2;SDS_P1;SDS_P2;PMS_P1;PMS_P2;Temp;Humidity;BMP_temperature;BMP_pressure;BME280_temperature;BME280_humidity;BME280_pressure;Samples;Min_cycle;Max_cycle;Signal;HPM_P1;HPM_P2
2020/12/23 00:01:24;;;;;;;;;;;9.50;99.90;;;;;;5119488;28;19912;-91
2020/12/23 00:03:55;;;;;;;;;;;9.50;99.90;;;;;;5098635;28;19931;-91
2020/12/23 00:06:22;;;;;;;;;;;9.50;99.90;;;;;;5017832;28;19909;-91
2020/12/23 00:08:54;;;;;;;;;;;9.50;99.90;;;;;;5033570;28;19963;-91
2020/12/23 00:11:22;;;;;;;;;;;9.50;99.90;;;;;;5031469;28;19914;-91
2020/12/23 00:13:52;;;;;;;;;;;9.50;99.90;;;;;;5027779;28;19920;-91
2020/12/23 00:16:32;;;;;;;;;;;9.50;99.90;;;;;;4997529;28;19920;-91
2020/12/23 00:19:04;;;;;;;;;;;9.50;99.90;;;;;;5011587;28;19913;-91
2020/12/23 00:21:35;;;;;;;;;;;9.50;99.90;;;;;;5013484;28;19918;-91
2020/12/23 00:24:03;;;;;;;;;;;9.50;99.90;;;;;;5011174;28;19909;-91
2020/12/23 00:26:34;;;;;;;;;;;9.60;99.90;;;;;;5010670;28;19909;-91
2020/12/23 00:29:04;;;;;;;;;;;9.60;99.90;;;;;;5014826;28;19921;-92
2020/12/23 00:31:39;;;;;;;;;;;9.60;99.90;;;;;;5013112;28;19925;-92
2020/12/23 00:34:10;;;;;;;;;;;9.60;99.90;;;;;;4998704;28;19917;-90
2020/12/23 00:36:38;;;;;;;;;;;9.60;99.90;;;;;;5024950;28;19936;-91
2020/12/23 00:39:10;;;;;;;;;;;9.60;99.90;;;;;;5058746;28;20467;-90
2020/12/23 00:41:45;;;;;;;;;;;9.60;99.90;;;;;;5051656;28;19917;-91
2020/12/23 00:44:11;;;;;;;;;;;9.60;99.90;;;;;;5027865;28;20355;-91
2020/12/23 00:46:44;;;;;;;;;;;9.60;99.90;;;;;;4995329;28;19918;-90
2020/12/23 00:49:14;;;;;;;;;;;9.60;99.90;;;;;;5009912;28;19956;-91
2020/12/23 00:51:40;;;;;;;;;;;9.60;99.90;;;;;;5013600;28;20406;-91
2020/12/23 00:54:10;;;;;;;;;;;9.60;99.90;;;;;;5010684;28;19913;-91
2020/12/23 00:56:57;;;;;;;;;;;9.70;99.90;;;;;;4954613;28;19911;-91
2020/12/23 00:59:33;;;;;;;;;;;9.70;99.90;;;;;;4954762;29;20344;-91
2020/12/23 01:02:05;;;;;;;;;;;9.70;99.90;;;;;;4955287;29;19919;-91
2020/12/23 01:04:36;;;;;;;;;;;9.70;99.90;;;;;;4952828;28;19915;-90
2020/12/23 01:07:07;;;;;;;;;;;9.70;99.90;;;;;;4953446;29;19910;-90
2020/12/23 01:09:44;;;;;;;;;;;9.70;99.90;;;;;;4953641;29;19910;-92
2020/12/23 01:12:14;;;;;;;;;;;9.70;99.90;;;;;;4939362;29;19911;-91
2020/12/23 01:14:46;;;;;;;;;;;9.70;99.90;;;;;;4958795;28;19920;-91
2020/12/23 01:17:14;;;;;;;;;;;9.70;99.90;;;;;;4976843;28;19968;-91
2020/12/23 01:19:43;;;;;;;;;;;9.70;99.90;;;;;;5015894;28;19924;-91
2020/12/23 01:22:09;;;;;;;;;;;9.70;99.90;;;;;;5017580;28;19975;-91
2020/12/23 01:24:56;;;;;;;;;;;9.70;99.90;;;;;;5032648;28;20000;-91
2020/12/23 01:27:22;;;;;;;;;;;9.70;99.90;;;;;;5068179;28;19919;-91
2020/12/23 01:29:49;;;;;;;;;;;9.70;99.90;;;;;;5114742;28;20014;-91
2020/12/23 01:32:20;;;;;;;;;;;9.70;99.90;;;;;;5112037;28;20359;-91
2020/12/23 01:34:51;;;;;;;;;;;9.70;99.90;;;;;;5113351;28;20041;-91
2020/12/23 01:37:23;;;;;;;;;;;9.70;99.90;;;;;;5117322;28;19947;-91
2020/12/23 01:40:00;;;;;;;;;;;9.70;99.90;;;;;;5134435;28;19911;-91
2020/12/23 01:42:31;;;;;;;;;;;9.70;99.90;;;;;;5112308;28;19911;-91
2020/12/23 01:45:00;;;;;;;;;;;9.70;99.90;;;;;;5117598;28;19914;-92
2020/12/23 01:47:28;;;;;;;;;;;9.70;99.90;;;;;;5117443;28;19908;-90
2020/12/23 01:49:56;;;;;;;;;;;9.70;99.90;;;;;;5118496;28;20006;-89
2020/12/23 01:52:32;;;;;;;;;;;9.70;99.90;;;;;;5134202;28;20295;-89
2020/12/23 01:54:59;;;;;;;;;;;9.70;99.90;;;;;;5119565;28;19915;-90
2020/12/23 01:57:28;;;;;;;;;;;9.70;99.90;;;;;;5117128;28;19956;-89
2020/12/23 02:00:01;;;;;;;;;;;9.70;99.90;;;;;;5111698;28;20096;-89
2020/12/23 02:02:36;;;;;;;;;;;9.70;99.90;;;;;;5086080;27;19922;-89
2020/12/23 02:05:12;;;;;;;;;;;9.70;99.90;;;;;;5135237;27;19907;-90
2020/12/23 02:07:40;;;;;;;;;;;9.70;99.90;;;;;;5121063;27;19908;-90
2020/12/23 02:10:12;;;;;;;;;;;9.70;99.90;;;;;;5136906;27;19908;-90
2020/12/23 02:12:51;;;;;;;;;;;9.70;99.90;;;;;;5075572;28;19987;-90
2020/12/23 02:15:24;;;;;;;;;;;9.70;99.90;;;;;;5059975;28;19968;-90
2020/12/23 02:17:55;;;;;;;;;;;9.70;99.90;;;;;;5058904;28;19908;-90
2020/12/23 02:20:21;;;;;;;;;;;9.70;99.90;;;;;;5075444;28;19982;-90
2020/12/23 02:22:47;;;;;;;;;;;9.70;99.90;;;;;;5075609;28;19917;-90
2020/12/23 02:25:14;;;;;;;;;;;9.70;99.90;;;;;;5075407;28;19908;-90
2020/12/23 02:27:59;;;;;;;;;;;9.80;99.90;;;;;;5070798;28;19920;-90
2020/12/23 02:30:27;;;;;;;;;;;9.80;99.90;;;;;;5075763;28;19952;-90
2020/12/23 02:32:53;;;;;;;;;;;9.70;99.90;;;;;;5070116;28;19908;-91
2020/12/23 02:35:30;;;;;;;;;;;9.80;99.90;;;;;;5069439;28;19942;-90
2020/12/23 02:38:04;;;;;;;;;;;9.80;99.90;;;;;;5075231;28;19909;-90
2020/12/23 02:40:37;;;;;;;;;;;9.70;99.90;;;;;;5072064;28;20004;-91
2020/12/23 02:43:29;;;;;;;;;;;9.70;99.90;;;;;;5082677;28;19985;-91
2020/12/23 02:45:58;;;;;;;;;;;9.80;99.90;;;;;;5093377;28;19908;-91
2020/12/23 02:48:35;;;;;;;;;;;9.80;99.90;;;;;;5072916;28;19917;-91
2020/12/23 02:51:06;;;;;;;;;;;9.80;99.90;;;;;;5109975;28;19918;-91
2020/12/23 02:53:33;;;;;;;;;;;9.80;99.90;;;;;;5082178;28;19922;-91
2020/12/23 02:56:10;;;;;;;;;;;9.80;99.90;;;;;;5096037;28;20002;-91
2020/12/23 02:58:47;;;;;;;;;;;9.80;99.90;;;;;;5098212;28;19908;-90
2020/12/23 03:01:25;;;;;;;;;;;9.80;99.90;;;;;;5098927;28;19924;-90
2020/12/23 03:03:51;;;;;;;;;;;9.70;99.90;;;;;;5099349;28;19976;-91
2020/12/23 03:06:20;;;;;;;;;;;9.80;99.90;;;;;;5116568;28;19915;-91
2020/12/23 03:08:49;;;;;;;;;;;9.80;99.90;;;;;;5098296;28;19912;-90
2020/12/23 03:11:18;;;;;;;;;;;9.80;99.90;;;;;;5072388;28;20424;-91
2020/12/23 03:13:58;;;;;;;;;;;9.80;99.90;;;;;;5092282;28;19919;-90
2020/12/23 03:16:27;;;;;;;;;;;9.80;99.90;;;;;;5073843;28;19908;-91
2020/12/23 03:18:53;;;;;;;;;;;9.80;99.90;;;;;;5077920;28;19918;-91
2020/12/23 03:21:27;;;;;;;;;;;9.80;99.90;;;;;;5077801;28;19919;-91
2020/12/23 03:23:58;;;;;;;;;;;9.80;99.90;;;;;;5058199;28;20007;-91
2020/12/23 03:26:41;;;;;;;;;;;9.80;99.90;;;;;;5094772;28;19912;-91
2020/12/23 03:29:09;;;;;;;;;;;9.80;99.90;;;;;;5077304;28;19920;-90
2020/12/23 03:31:40;;;;;;;;;;;9.80;99.90;;;;;;5077624;28;19912;-90
2020/12/23 03:34:08;;;;;;;;;;;9.80;99.90;;;;;;5037029;28;19917;-90
2020/12/23 03:36:47;;;;;;;;;;;9.90;99.90;;;;;;5037341;28;20388;-91
2020/12/23 03:39:16;;;;;;;;;;;9.80;99.90;;;;;;5036114;28;20439;-90
2020/12/23 03:41:42;;;;;;;;;;;9.80;99.90;;;;;;5040175;28;19921;-90
2020/12/23 03:44:11;;;;;;;;;;;9.90;99.90;;;;;;5017731;28;19924;-91
2020/12/23 03:46:37;;;;;;;;;;;9.90;99.90;;;;;;5012975;28;19955;-90
2020/12/23 03:49:05;;;;;;;;;;;9.90;99.90;;;;;;5013031;28;19999;-90
2020/12/23 03:51:37;;;;;;;;;;;9.90;99.90;;;;;;5017577;28;19909;-90
2020/12/23 03:54:02;;;;;;;;;;;9.90;99.90;;;;;;5017491;28;19924;-91
2020/12/23 03:56:31;;;;;;;;;;;9.90;99.90;;;;;;5012806;28;19974;-90
2020/12/23 03:58:59;;;;;;;;;;;9.90;99.90;;;;;;5017018;28;19909;-91
2020/12/23 04:01:27;;;;;;;;;;;9.90;99.90;;;;;;5017220;28;20394;-90
2020/12/23 04:03:56;;;;;;;;;;;9.90;99.90;;;;;;5017526;28;19944;-91
2020/12/23 04:06:30;;;;;;;;;;;9.90;99.90;;;;;;5091372;28;19912;-90
2020/12/23 04:09:13;;;;;;;;;;;9.90;99.90;;;;;;5093913;28;19908;-91
2020/12/23 04:11:44;;;;;;;;;;;9.90;99.90;;;;;;5094432;28;19908;-91
2020/12/23 04:14:13;;;;;;;;;;;9.90;99.90;;;;;;5092859;28;19909;-91
2020/12/23 04:16:50;;;;;;;;;;;10.00;99.90;;;;;;5116410;28;19920;-91
2020/12/23 04:19:21;;;;;;;;;;;10.00;99.90;;;;;;5109457;28;19908;-90
2020/12/23 04:21:56;;;;;;;;;;;10.00;99.90;;;;;;5114979;28;19920;-90
2020/12/23 04:24:35;;;;;;;;;;;10.00;99.90;;;;;;5093757;28;20381;-91
2020/12/23 04:27:03;;;;;;;;;;;10.00;99.90;;;;;;5077370;28;19908;-91
2020/12/23 04:29:29;;;;;;;;;;;10.00;99.90;;;;;;5037553;28;19920;-90
2020/12/23 04:31:57;;;;;;;;;;;10.10;99.90;;;;;;5050396;28;20298;-89
2020/12/23 04:34:23;;;;;;;;;;;10.10;99.90;;;;;;5053331;28;19909;-91
2020/12/23 04:36:51;;;;;;;;;;;10.10;99.90;;;;;;5053243;28;19942;-90
2020/12/23 04:39:31;;;;;;;;;;;10.10;99.90;;;;;;5052179;28;19913;-90
2020/12/23 04:42:17;;;;;;;;;;;10.10;99.90;;;;;;5053305;28;19960;-90
2020/12/23 04:44:51;;;;;;;;;;;10.10;99.90;;;;;;5048161;28;19936;-90
2020/12/23 04:47:24;;;;;;;;;;;10.20;99.90;;;;;;5053385;28;19924;-90
2020/12/23 04:49:54;;;;;;;;;;;10.20;99.90;;;;;;5049602;28;19909;-90
2020/12/23 04:52:28;;;;;;;;;;;10.10;99.90;;;;;;5054292;28;19909;-90
2020/12/23 04:54:56;;;;;;;;;;;10.20;99.90;;;;;;5042144;28;19959;-89
2020/12/23 04:57:27;;;;;;;;;;;10.20;99.90;;;;;;5051971;28;19934;-90
2020/12/23 05:00:01;;;;;;;;;;;10.20;99.90;;;;;;5059089;28;19920;-89
2020/12/23 05:02:27;;;;;;;;;;;10.20;99.90;;;;;;5058021;28;19913;-89
2020/12/23 05:04:52;;;;;;;;;;;10.20;99.90;;;;;;5056874;28;19908;-90
2020/12/23 05:07:20;;;;;;;;;;;10.20;99.90;;;;;;5056610;28;19913;-89
2020/12/23 05:09:47;;;;;;;;;;;10.20;99.90;;;;;;5067931;28;19908;-89
2020/12/23 05:12:19;;;;;;;;;;;10.20;99.90;;;;;;5065636;28;19950;-89
2020/12/23 05:14:55;;;;;;;;;;;10.30;99.90;;;;;;5072494;28;20005;-89
2020/12/23 05:17:30;;;;;;;;;;;10.30;99.90;;;;;;5072532;28;20047;-88
2020/12/23 05:20:04;;;;;;;;;;;10.30;99.90;;;;;;5103016;28;20006;-90
2020/12/23 05:22:40;;;;;;;;;;;10.30;99.90;;;;;;5111812;28;20388;-91
2020/12/23 05:25:21;;;;;;;;;;;10.40;99.90;;;;;;5092513;28;19920;-92
2020/12/23 05:27:50;;;;;;;;;;;10.40;99.90;;;;;;5100343;28;19926;-92
2020/12/23 05:30:33;;;;;;;;;;;10.40;99.90;;;;;;5135234;28;19962;-92
2020/12/23 05:33:02;;;;;;;;;;;10.50;99.90;;;;;;5112643;28;19956;-92
2020/12/23 05:35:28;;;;;;;;;;;10.50;99.90;;;;;;5118323;27;20018;-92
2020/12/23 05:37:55;;;;;;;;;;;10.50;99.90;;;;;;5117012;27;19950;-92
2020/12/23 05:40:31;;;;;;;;;;;10.50;99.90;;;;;;5138092;27;19915;-91
2020/12/23 05:43:01;;;;;;;;;;;10.50;99.90;;;;;;5123135;27;19956;-92
2020/12/23 05:45:47;;;;;;;;;;;10.50;99.90;;;;;;5116789;27;19907;-92
2020/12/23 05:48:18;;;;;;;;;;;10.50;99.90;;;;;;5119791;27;19911;-93
2020/12/23 05:50:50;;;;;;;;;;;10.50;99.90;;;;;;5121044;27;19919;-92
2020/12/23 05:53:19;;;;;;;;;;;10.50;99.90;;;;;;5139270;27;19946;-93
2020/12/23 05:55:58;;;;;;;;;;;10.50;99.90;;;;;;5121003;27;19915;-94
2020/12/23 05:58:27;;;;;;;;;;;10.60;99.90;;;;;;5121041;27;20351;-93
2020/12/23 06:01:05;;;;;;;;;;;10.60;99.90;;;;;;5121188;27;19915;-94
2020/12/23 06:03:48;;;;;;;;;;;10.60;99.90;;;;;;5119088;27;19912;-94
2020/12/23 06:06:26;;;;;;;;;;;10.60;99.90;;;;;;5121501;27;19908;-93
2020/12/23 06:09:03;;;;;;;;;;;10.60;99.90;;;;;;5104252;27;19911;-93
2020/12/23 06:11:40;;;;;;;;;;;10.60;99.90;;;;;;5116437;27;19911;-93
2020/12/23 06:14:08;;;;;;;;;;;10.60;99.90;;;;;;5115274;27;20043;-93
2020/12/23 06:16:36;;;;;;;;;;;10.60;99.90;;;;;;5120715;27;19957;-92
2020/12/23 06:19:03;;;;;;;;;;;10.60;99.90;;;;;;5114941;27;19990;-92
2020/12/23 06:21:34;;;;;;;;;;;10.60;99.90;;;;;;5117775;27;20360;-92
2020/12/23 06:24:15;;;;;;;;;;;10.60;99.90;;;;;;5120733;27;20002;-92
2020/12/23 06:26:44;;;;;;;;;;;10.70;99.90;;;;;;5138822;27;20089;-93
2020/12/23 06:29:15;;;;;;;;;;;10.70;99.90;;;;;;5116961;28;19942;-93
2020/12/23 06:31:48;;;;;;;;;;;10.70;99.90;;;;;;5117305;28;19915;-92
2020/12/23 06:34:16;;;;;;;;;;;10.70;99.90;;;;;;5118262;28;19908;-92
2020/12/23 06:36:48;;;;;;;;;;;10.70;99.90;;;;;;5116100;28;19915;-90
2020/12/23 06:39:31;;;;;;;;;;;10.70;99.90;;;;;;5116680;28;19908;-91
2020/12/23 06:41:59;;;;;;;;;;;10.70;99.90;;;;;;5116663;28;20394;-91
2020/12/23 06:44:47;;;;;;;;;;;10.80;99.90;;;;;;5116043;28;20015;-92
2020/12/23 06:47:13;;;;;;;;;;;10.80;99.90;;;;;;5104524;28;19959;-92
2020/12/23 06:49:42;;;;;;;;;;;10.80;99.90;;;;;;5116405;28;19951;-92
2020/12/23 06:52:27;;;;;;;;;;;10.80;99.90;;;;;;5116662;28;20006;-91
2020/12/23 06:55:19;;;;;;;;;;;10.80;99.90;;;;;;5117913;28;19907;-92
2020/12/23 06:57:50;;;;;;;;;;;10.80;99.90;;;;;;5117358;28;20003;-91
2020/12/23 07:00:44;;;;;;;;;;;10.80;99.90;;;;;;5111730;28;19916;-91
2020/12/23 07:03:10;;;;;;;;;;;10.80;99.90;;;;;;5117236;28;19912;-91
2020/12/23 07:05:47;;;;;;;;;;;10.80;99.90;;;;;;5116492;28;19915;-91
2020/12/23 07:08:16;;;;;;;;;;;10.80;99.90;;;;;;5116324;28;19922;-91
2020/12/23 07:11:01;;;;;;;;;;;10.80;99.90;;;;;;5116298;28;19908;-91
2020/12/23 07:13:30;;;;;;;;;;;10.90;99.90;;;;;;5114380;28;19907;-91
2020/12/23 07:15:59;;;;;;;;;;;10.90;99.90;;;;;;5111233;28;19915;-91
2020/12/23 07:18:30;;;;;;;;;;;11.00;99.90;;;;;;5116114;28;19981;-91
2020/12/23 07:21:12;;;;;;;;;;;11.10;99.90;;;;;;5115902;28;20006;-91
2020/12/23 07:23:40;;;;;;;;;;;11.10;99.90;;;;;;5112540;28;20010;-91
2020/12/23 07:26:08;;;;;;;;;;;11.10;99.90;;;;;;5110125;28;19908;-91
2020/12/23 07:28:52;;;;;;;;;;;11.10;99.90;;;;;;5098484;28;19924;-91
2020/12/23 07:31:32;;;;;;;;;;;11.20;99.90;;;;;;5115322;28;19908;-92
2020/12/23 07:34:12;;;;;;;;;;;11.20;99.90;;;;;;5116705;28;19919;-91
2020/12/23 07:36:38;;;;;;;;;;;11.30;99.90;;;;;;5115386;28;20010;-91
2020/12/23 07:39:07;;;;;;;;;;;11.30;99.90;;;;;;5115029;28;20264;-91
2020/12/23 07:41:33;;;;;;;;;;;11.40;99.90;;;;;;5115444;28;20386;-91
2020/12/23 07:43:59;;;;;;;;;;;11.40;99.90;;;;;;5112581;28;20007;-91
2020/12/23 07:46:27;;;;;;;;;;;11.40;99.90;;;;;;5114346;28;19908;-91
2020/12/23 07:48:56;;;;;;;;;;;11.50;99.90;;;;;;5115999;28;19914;-91
2020/12/23 07:51:31;;;;;;;;;;;11.50;99.90;;;;;;5115126;28;19907;-91
2020/12/23 07:54:19;;;;;;;;;;;11.50;99.90;;;;;;5111279;28;19955;-91
2020/12/23 07:56:46;;;;;;;;;;;11.60;99.90;;;;;;5115021;28;19908;-92
2020/12/23 07:59:32;;;;;;;;;;;11.60;99.90;;;;;;5107412;28;19908;-91
2020/12/23 08:02:06;;;;;;;;;;;11.60;99.90;;;;;;5114704;28;20018;-90
2020/12/23 08:04:34;;;;;;;;;;;11.60;99.90;;;;;;5112072;28;20421;-91
2020/12/23 08:07:03;;;;;;;;;;;11.60;99.90;;;;;;5109841;28;19947;-91
2020/12/23 08:09:31;;;;;;;;;;;11.70;99.90;;;;;;5110362;28;19957;-91
2020/12/23 08:11:57;;;;;;;;;;;11.60;99.90;;;;;;5115388;28;19908;-91
2020/12/23 08:14:23;;;;;;;;;;;11.70;99.90;;;;;;5114936;28;19908;-91
2020/12/23 08:16:59;;;;;;;;;;;11.70;99.90;;;;;;5114565;28;19912;-91
2020/12/23 08:19:27;;;;;;;;;;;11.70;99.90;;;;;;5110549;28;20370;-90
2020/12/23 08:22:14;;;;;;;;;;;11.70;99.90;;;;;;5115627;28;20006;-91
2020/12/23 08:24:42;;;;;;;;;;;11.70;99.90;;;;;;5114851;28;19908;-91
2020/12/23 08:27:12;;;;;;;;;;;11.70;99.90;;;;;;5109803;28;19912;-91
2020/12/23 08:29:41;;;;;;;;;;;11.70;99.90;;;;;;5114486;28;19920;-91
2020/12/23 08:32:26;;;;;;;;;;;11.70;99.90;;;;;;5111786;28;19915;-91
2020/12/23 08:35:00;;;;;;;;;;;11.70;99.90;;;;;;5115100;28;19951;-92
2020/12/23 08:37:33;;;;;;;;;;;11.70;99.90;;;;;;5109502;28;20452;-93
2020/12/23 08:40:07;;;;;;;;;;;11.70;99.90;;;;;;5097836;28;20339;-92
2020/12/23 08:42:32;;;;;;;;;;;11.70;99.90;;;;;;5109122;28;19911;-91
2020/12/23 08:45:04;;;;;;;;;;;11.70;99.90;;;;;;5115301;28;19912;-93
2020/12/23 08:47:33;;;;;;;;;;;11.70;99.90;;;;;;5109948;28;19915;-93
2020/12/23 08:50:06;;;;;;;;;;;11.80;99.90;;;;;;5115004;28;19912;-93
2020/12/23 08:52:34;;;;;;;;;;;11.70;99.90;;;;;;5109326;28;19947;-93
2020/12/23 08:55:20;;;;;;;;;;;11.80;99.90;;;;;;5109918;28;19907;-93
2020/12/23 08:57:46;;;;;;;;;;;11.70;99.90;;;;;;5116232;28;19915;-92
2020/12/23 09:00:21;;;;;;;;;;;11.70;99.90;;;;;;5114534;28;19911;-92
2020/12/23 09:02:54;;;;;;;;;;;11.80;99.90;;;;;;5114441;28;19937;-92
2020/12/23 09:05:26;;;;;;;;;;;11.80;99.90;;;;;;5115977;28;19908;-93
2020/12/23 09:08:07;;;;;;;;;;;11.80;99.90;;;;;;5107908;28;19969;-92
2020/12/23 09:10:59;;;;;;;;;;;11.80;99.90;;;;;;5114039;28;19908;-93
2020/12/23 09:13:31;;;;;;;;;;;11.80;99.90;;;;;;5118910;28;19950;-93
2020/12/23 09:16:01;;;;;;;;;;;11.80;99.90;;;;;;5112101;28;19909;-92
2020/12/23 09:18:53;;;;;;;;;;;11.80;99.90;;;;;;5119732;28;19908;-92
2020/12/23 09:21:24;;;;;;;;;;;11.80;99.90;;;;;;5112601;28;19916;-93
2020/12/23 09:24:04;;;;;;;;;;;11.80;99.90;;;;;;5112396;28;20006;-92
2020/12/23 09:26:32;;;;;;;;;;;11.80;99.90;;;;;;5118205;28;19911;-93
2020/12/23 09:29:01;;;;;;;;;;;11.80;99.90;;;;;;5113781;28;19923;-93
2020/12/23 09:31:29;;;;;;;;;;;11.80;99.90;;;;;;5113672;28;19915;-93
2020/12/23 09:33:57;;;;;;;;;;;11.80;99.90;;;;;;5118483;28;19931;-92
2020/12/23 09:36:26;;;;;;;;;;;11.80;99.90;;;;;;5115881;28;20333;-93
2020/12/23 09:38:55;;;;;;;;;;;11.80;99.90;;;;;;5118617;28;19908;-93
2020/12/23 09:41:23;;;;;;;;;;;11.80;99.90;;;;;;5118843;28;20012;-93
2020/12/23 09:43:49;;;;;;;;;;;11.80;99.90;;;;;;5113100;28;19912;-93
2020/12/23 09:46:20;;;;;;;;;;;11.80;99.90;;;;;;5111332;28;19915;-92
2020/12/23 09:48:52;;;;;;;;;;;11.80;99.90;;;;;;5083796;28;19912;-93
2020/12/23 09:51:18;;;;;;;;;;;11.80;99.90;;;;;;5114630;28;19912;-94
2020/12/23 09:53:44;;;;;;;;;;;11.80;99.90;;;;;;5111398;28;19915;-93
2020/12/23 09:56:11;;;;;;;;;;;11.80;99.90;;;;;;5109540;28;20006;-93
2020/12/23 09:58:43;;;;;;;;;;;11.80;99.90;;;;;;5117579;28;19931;-93
2020/12/23 10:01:08;;;;;;;;;;;11.80;99.90;;;;;;5112147;28;19943;-93
2020/12/23 10:03:39;;;;;;;;;;;11.80;99.90;;;;;;5117561;28;19966;-93
2020/12/23 10:06:04;;;;;;;;;;;11.80;99.90;;;;;;5117089;28;19911;-93
2020/12/23 10:08:30;;;;;;;;;;;11.80;99.90;;;;;;5110992;28;20368;-92
2020/12/23 10:11:04;;;;;;;;;;;11.80;99.90;;;;;;5111243;28;19912;-93
2020/12/23 10:13:38;;;;;;;;;;;11.80;99.90;;;;;;5118755;28;19912;-94
2020/12/23 10:16:04;;;;;;;;;;;11.80;99.90;;;;;;5119730;28;19908;-93
2020/12/23 10:18:32;;;;;;;;;;;11.80;99.90;;;;;;5117004;28;19908;-93
2020/12/23 10:20:58;;;;;;;;;;;11.90;99.90;;;;;;5112421;28;19923;-93
2020/12/23 10:23:23;;;;;;;;;;;11.90;99.90;;;;;;5109474;28;19908;-93
2020/12/23 10:25:58;;;;;;;;;;;11.90;99.90;;;;;;5110914;28;20257;-92
2020/12/23 10:28:31;;;;;;;;;;;11.90;99.90;;;;;;5115074;28;19920;-93
2020/12/23 10:31:03;;;;;;;;;;;11.90;99.90;;;;;;5111916;28;19923;-91
2020/12/23 10:33:38;;;;;;;;;;;11.90;99.90;;;;;;5110756;28;20470;-92
2020/12/23 10:36:17;;;;;;;;;;;11.90;99.90;;;;;;5116669;28;19908;-90
2020/12/23 10:38:46;;;;;;;;;;;11.90;99.90;;;;;;5099381;28;19912;-91
2020/12/23 10:41:19;;;;;;;;;;;11.90;99.90;;;;;;5111181;28;19915;-91
2020/12/23 10:43:46;;;;;;;;;;;11.90;99.90;;;;;;5116763;28;20410;-91
2020/12/23 10:46:12;;;;;;;;;;;11.90;99.90;;;;;;5113785;28;19950;-91
2020/12/23 10:48:41;;;;;;;;;;;11.90;99.90;;;;;;5116442;28;20357;-91
2020/12/23 10:51:08;;;;;;;;;;;11.90;99.90;;;;;;5109622;28;19907;-92
2020/12/23 10:53:37;;;;;;;;;;;12.00;99.90;;;;;;5099332;28;20002;-92
2020/12/23 10:56:06;;;;;;;;;;;12.00;99.90;;;;;;5117030;28;19908;-92
2020/12/23 10:58:35;;;;;;;;;;;12.00;99.90;;;;;;5114044;28;19916;-91
2020/12/23 11:01:04;;;;;;;;;;;12.00;99.90;;;;;;5116345;28;20385;-91
2020/12/23 11:03:33;;;;;;;;;;;12.00;99.90;;;;;;5116655;28;19912;-91
2020/12/23 11:06:06;;;;;;;;;;;12.00;99.90;;;;;;5116447;28;19908;-90
2020/12/23 11:08:38;;;;;;;;;;;11.90;99.90;;;;;;5113963;28;19978;-91
2020/12/23 11:11:06;;;;;;;;;;;11.90;99.90;;;;;;5115680;28;19915;-92
2020/12/23 11:13:32;;;;;;;;;;;11.90;99.90;;;;;;5111573;28;19908;-92
2020/12/23 11:16:06;;;;;;;;;;;11.90;99.90;;;;;;5115838;28;19998;-92
2020/12/23 11:18:37;;;;;;;;;;;11.90;99.90;;;;;;5115742;28;19911;-93
2020/12/23 11:21:06;;;;;;;;;;;11.90;99.90;;;;;;5110660;28;20330;-92
2020/12/23 11:23:33;;;;;;;;;;;11.80;99.90;;;;;;5109703;28;19923;-93
2020/12/23 11:26:04;;;;;;;;;;;11.80;99.90;;;;;;5116066;28;19912;-94
2020/12/23 11:28:32;;;;;;;;;;;11.80;99.90;;;;;;5121633;27;20006;-94
2020/12/23 11:31:03;;;;;;;;;;;11.90;99.90;;;;;;5120489;27;19919;-94
2020/12/23 11:33:51;;;;;;;;;;;11.80;99.90;;;;;;5136416;27;19908;-94
2020/12/23 11:36:17;;;;;;;;;;;11.80;99.90;;;;;;5116262;27;19912;-93
2020/12/23 11:38:43;;;;;;;;;;;11.90;99.90;;;;;;5115995;27;20000;-94
2020/12/23 11:41:13;;;;;;;;;;;11.90;99.90;;;;;;5115756;27;19961;-93
2020/12/23 11:43:41;;;;;;;;;;;11.90;99.90;;;;;;5119697;27;20316;-93
2020/12/23 11:46:07;;;;;;;;;;;11.90;99.90;;;;;;5077922;28;19912;-94
2020/12/23 11:48:36;;;;;;;;;;;11.90;99.90;;;;;;5077582;28;19909;-93
2020/12/23 11:51:10;;;;;;;;;;;11.80;99.90;;;;;;5074389;28;19908;-94
2020/12/23 11:53:43;;;;;;;;;;;11.80;99.90;;;;;;5077875;28;19912;-93
2020/12/23 11:56:09;;;;;;;;;;;11.80;99.90;;;;;;5094500;28;19908;-92
2020/12/23 11:58:35;;;;;;;;;;;11.80;99.90;;;;;;5077880;28;19915;-93
2020/12/23 12:01:01;;;;;;;;;;;11.80;99.90;;;;;;5017803;28;19917;-93
2020/12/23 12:03:29;;;;;;;;;;;11.80;99.90;;;;;;5029597;28;19909;-94
2020/12/23 12:06:02;;;;;;;;;;;11.80;99.90;;;;;;5034846;28;20012;-93
2020/12/23 12:08:34;;;;;;;;;;;11.80;99.90;;;;;;5034643;28;20005;-94
2020/12/23 12:11:02;;;;;;;;;;;11.80;99.90;;;;;;5029651;28;19916;-94
2020/12/23 12:16:57;;;;;;;;;;;11.80;99.90;;;;;;5010901;28;20266;-92
2020/12/23 12:19:26;;;;;;;;;;;11.80;99.90;;;;;;5013601;28;20378;-92
2020/12/23 12:21:51;;;;;;;;;;;11.80;99.90;;;;;;5011241;28;19921;-93
2020/12/23 12:24:19;;;;;;;;;;;11.80;99.90;;;;;;5011075;28;19909;-92
2020/12/23 12:26:47;;;;;;;;;;;11.80;99.90;;;;;;5008929;28;20389;-93
2020/12/23 12:29:13;;;;;;;;;;;11.80;99.90;;;;;;5010467;28;19933;-93
2020/12/23 12:31:47;;;;;;;;;;;11.80;99.90;;;;;;5028771;28;19988;-93
2020/12/23 12:34:30;;;;;;;;;;;11.90;99.90;;;;;;5072622;28;20289;-94
2020/12/23 13:11:17;;;;;;;;;;;11.80;99.90;;;;;;5072370;28;19940;-93
2020/12/23 13:13:52;;;;;;;;;;;11.80;99.90;;;;;;5012006;28;20378;-93
2020/12/23 13:16:46;;;;;;;;;;;11.80;99.90;;;;;;5002698;28;19910;-93
2020/12/23 13:19:23;;;;;;;;;;;11.80;99.90;;;;;;4993379;28;19910;-93
2020/12/23 13:38:21;;;;;;;;;;;11.70;99.90;;;;;;5020767;28;20000;-95
2020/12/23 13:40:55;;;;;;;;;;;11.70;99.90;;;;;;4996640;28;19946;-94
2020/12/23 14:01:57;;;;;;;;;;;11.70;99.90;;;;;;5055971;28;19939;-92
2020/12/23 14:04:23;;;;;;;;;;;11.80;99.90;;;;;;4980944;28;19965;-93
2020/12/23 14:10:15;;;;;;;;;;;11.70;99.90;;;;;;4997996;28;20418;-93
2020/12/23 14:12:52;;;;;;;;;;;11.70;99.90;;;;;;4980360;28;19964;-92
2020/12/23 14:27:47;;;;;;;;;;;11.60;99.90;;;;;;4995896;28;19917;-93
2020/12/23 14:30:22;;;;;;;;;;;11.60;99.90;;;;;;4992675;28;19910;-92
2020/12/23 14:32:57;;;;;;;;;;;11.60;99.90;;;;;;4992317;28;20594;-93
2020/12/23 14:35:34;;;;;;;;;;;11.60;99.90;;;;;;4979546;28;19972;-93
2020/12/23 14:38:07;;;;;;;;;;;11.60;99.90;;;;;;4980156;28;19996;-92
2020/12/23 15:02:29;;;;;;;;;;;11.60;99.90;;;;;;5075016;28;19916;-94
2020/12/23 15:04:58;;;;;;;;;;;11.50;99.90;;;;;;5076559;28;19963;-94
2020/12/23 15:26:13;;;;;;;;;;;11.60;99.90;;;;;;5055808;28;19944;-93
2020/12/23 15:28:42;;;;;;;;;;;11.60;99.90;;;;;;5053482;28;19955;-94
2020/12/23 15:34:23;;;;;;;;;;;11.50;99.90;;;;;;5074675;28;19915;-95
2020/12/23 15:36:53;;;;;;;;;;;11.50;99.90;;;;;;5074774;28;20270;-93
2020/12/23 15:42:58;;;;;;;;;;;11.50;99.90;;;;;;5074708;28;20456;-94
2020/12/23 15:46:05;;;;;;;;;;;11.50;99.90;;;;;;5076698;28;19919;-92
2020/12/23 15:48:49;;;;;;;;;;;11.50;99.90;;;;;;5057957;28;20447;-91
2020/12/23 15:51:51;;;;;;;;;;;;;;;;;;;;;
2020/12/23 15:54:22;;;;;;;;;;;11.50;99.90;;;;;;5049507;28;19919;-92
2020/12/23 15:57:00;;;;;;;;;;;11.50;99.90;;;;;;5073637;28;19912;-92
2020/12/23 15:59:29;;;;;;;;;;;11.50;99.90;;;;;;5057848;28;20012;-92
2020/12/23 16:02:01;;;;;;;;;;;11.60;99.90;;;;;;5073959;28;19916;-91
2020/12/23 16:04:39;;;;;;;;;;;11.60;99.90;;;;;;4994311;28;20012;-91
2020/12/23 16:10:31;;;;;;;;;;;11.60;99.90;;;;;;5033072;28;19917;-92
2020/12/23 16:29:07;;;;;;;;;;;11.60;99.90;;;;;;5032872;28;19916;-93
2020/12/23 16:31:37;;;;;;;;;;;11.60;99.90;;;;;;5033351;28;19909;-90
2020/12/23 16:34:04;;;;;;;;;;;11.60;99.90;;;;;;5016721;28;19963;-91
2020/12/23 17:45:46;;;;;;;;;;;11.90;99.90;;;;;;5140539;27;20420;-90
2020/12/23 17:48:15;;;;;;;;;;;11.90;99.90;;;;;;5118302;27;19915;-92
2020/12/23 17:50:43;;;;;;;;;;;11.90;99.90;;;;;;5121384;27;19990;-89
2020/12/23 17:53:10;;;;;;;;;;;11.90;99.90;;;;;;5121212;27;19911;-91
2020/12/23 17:55:44;;;;;;;;;;;11.90;99.90;;;;;;5121924;27;19938;-92
2020/12/23 17:58:13;;;;;;;;;;;11.90;99.90;;;;;;5120000;27;19916;-91
2020/12/23 18:01:00;;;;;;;;;;;11.90;99.90;;;;;;5116466;27;19916;-91
2020/12/23 18:03:33;;;;;;;;;;;11.90;99.90;;;;;;5136560;27;19912;-92
2020/12/23 18:09:29;;;;;;;;;;;11.80;99.90;;;;;;5139041;27;20443;-92
2020/12/23 18:11:55;;;;;;;;;;;11.80;99.90;;;;;;5120988;27;19907;-92
2020/12/23 18:14:23;;;;;;;;;;;11.80;99.90;;;;;;5076329;28;19909;-92
2020/12/23 18:17:36;;;;;;;;;;;11.80;99.90;;;;;;5077235;28;20288;-92
2020/12/23 18:20:05;;;;;;;;;;;11.80;99.90;;;;;;5075995;28;20323;-92
2020/12/23 18:22:31;;;;;;;;;;;11.80;99.90;;;;;;5058911;28;19912;-95
2020/12/23 18:25:12;;;;;;;;;;;11.80;99.90;;;;;;5073279;28;19958;-92
2020/12/23 19:07:34;;;;;;;;;;;11.70;99.90;;;;;;5137506;27;19927;-92
2020/12/23 19:10:21;;;;;;;;;;;11.70;99.90;;;;;;5135590;27;19922;-91
2020/12/23 19:56:42;;;;;;;;;;;11.50;99.90;;;;;;5136091;27;19953;-91
2020/12/23 19:59:15;;;;;;;;;;;11.50;99.90;;;;;;5129986;27;19907;-90
2020/12/23 20:02:12;;;;;;;;;;;11.50;99.90;;;;;;5118695;27;19956;-91